Página principal
METAR-TAF:

METAR-TAF

Aeroportos :

Pequim, China

Aeroporto Internacional de Pequim

latitude: 39-56N, longitude: 116-17E, altura: 55 m

Observação actual do tempo

O boletim foi feito há 22 minutos, às 22:30 UTC
Vento 10 kt de nor-noroeste
Temperatura 1°C
Humidade 37%
Pressão 1025 hPa
Visibilidade 10 km ou mais
sem nuvens abaixo de 1500 metros e sem cumulonimbus

METAR: ZBAA 212230Z 33005MPS CAVOK 01/M12 Q1025 NOSIG

Hora: 06:52 (22:52 UTC)

Previsão

O boletim foi feito há 7 horas e 32 minutos, às 15:20 UTC
Previsão válida de 21 às 18 UTC a 22 às 18 UTC
Vento 6 kt de noroeste
Visibilidade 10 km ou mais
sem nuvens abaixo de 1500 metros e sem cumulonimbus
Tornando-se
de 22 às 02 UTC a 22 às 03 UTC
Vento 16 kt de noroeste com rajadas de 29 kt

TAF: ZBAA 211520Z 2118/2218 32003MPS CAVOK TX07/2207Z TNM03/21Z BECMG 2202/2203 32008G15MPS

Observações e previsões do tempo de mais de 4000 aeroportos (mensagens METAR e TAF).

As estações disponíveis são os pontos amarelos e vermelhos sobre o mapa.

Mova o rato sobre o mapa para ver o nome da estação.

Depois clique no ponto para visualizar as observações e previsões meteorológicas.

Para alterar o mapa : clique nos botões verdes com uma cruz preta para aumentar o zoom; no botão verde com uma pitada de zoom; ou nas setas verdes para mapas adjacentes.


METAR-TAF: